createdAt,value
2018-04-27T00:01:14.730Z,9.96
2018-04-27T00:02:14.731Z,9.94
2018-04-27T00:04:07.663Z,10.17
2018-04-27T00:05:07.771Z,10.12
2018-04-27T00:07:00.603Z,10.05
2018-04-27T00:08:00.603Z,10.05
2018-04-27T00:09:54.086Z,10.07
2018-04-27T00:10:54.107Z,10.08
2018-04-27T00:12:47.057Z,10.07
2018-04-27T00:13:47.058Z,10.07
2018-04-27T00:15:40.509Z,10.11
2018-04-27T00:16:40.524Z,10.07
2018-04-27T00:18:33.479Z,10.12
2018-04-27T00:19:33.477Z,9.97
2018-04-27T00:21:26.434Z,9.90
2018-04-27T00:22:26.434Z,9.90
2018-04-27T00:24:19.362Z,9.90
2018-04-27T00:25:19.380Z,9.81
2018-04-27T00:27:12.333Z,9.75
2018-04-27T00:28:12.334Z,9.65
2018-04-27T00:30:05.269Z,9.71
2018-04-27T00:31:05.289Z,9.61
2018-04-27T00:32:58.242Z,9.60
2018-04-27T00:33:58.246Z,9.48
2018-04-27T00:35:51.179Z,9.56
2018-04-27T00:36:51.201Z,9.54
2018-04-27T00:38:44.151Z,9.48
2018-04-27T00:39:44.149Z,9.53
2018-04-27T00:41:37.107Z,9.47
2018-04-27T00:42:37.106Z,9.38
2018-04-27T00:44:30.040Z,9.35
2018-04-27T00:45:30.058Z,9.31
2018-04-27T00:47:23.014Z,9.17
2018-04-27T00:48:23.013Z,9.23
2018-04-27T00:50:15.947Z,9.15
2018-04-27T00:51:15.963Z,9.14
2018-04-27T00:53:08.920Z,9.14
2018-04-27T00:54:08.917Z,9.05
2018-04-27T00:56:01.853Z,8.94
2018-04-27T00:57:01.874Z,8.84
2018-04-27T00:58:54.829Z,8.92
2018-04-27T00:59:54.827Z,8.80
2018-04-27T01:01:47.784Z,8.61
2018-04-27T01:02:47.781Z,8.70
2018-04-27T01:04:40.716Z,8.73
2018-04-27T01:05:40.734Z,8.70
2018-04-27T01:07:33.689Z,8.70
2018-04-27T01:08:33.688Z,8.62
2018-04-27T01:10:26.622Z,8.48
2018-04-27T01:11:26.643Z,8.48
2018-04-27T01:13:19.598Z,8.48
2018-04-27T01:14:19.597Z,8.44
2018-04-27T01:16:12.533Z,8.43
2018-04-27T01:17:12.549Z,8.47
2018-04-27T01:19:05.504Z,8.33
2018-04-27T01:20:05.503Z,8.29
2018-04-27T01:21:58.471Z,8.40
2018-04-27T01:22:58.458Z,8.33
2018-04-27T01:24:51.393Z,8.29
2018-04-27T01:25:51.413Z,8.44
2018-04-27T01:27:44.364Z,8.40
2018-04-27T01:28:44.363Z,8.34
2018-04-27T01:30:37.299Z,8.43
2018-04-27T01:31:37.315Z,8.33
2018-04-27T01:33:30.274Z,8.19
2018-04-27T01:34:30.270Z,8.18
2018-04-27T01:36:23.205Z,8.19
2018-04-27T01:37:23.223Z,8.18
2018-04-27T01:39:16.178Z,8.19
2018-04-27T01:40:16.176Z,8.23
2018-04-27T01:42:09.135Z,8.23
2018-04-27T01:43:09.133Z,8.22
2018-04-27T01:45:02.069Z,8.15
2018-04-27T01:46:02.085Z,8.12
2018-04-27T01:47:55.050Z,8.01
2018-04-27T01:48:55.040Z,8.05
2018-04-27T01:50:47.977Z,8.00
2018-04-27T01:51:47.995Z,7.93
2018-04-27T01:53:40.951Z,7.90
2018-04-27T01:54:40.949Z,7.80
2018-04-27T01:56:33.883Z,7.77
2018-04-27T01:57:33.912Z,7.68
2018-04-27T01:59:26.861Z,7.77
2018-04-27T02:00:26.857Z,7.68
2018-04-27T02:02:19.830Z,7.82
2018-04-27T02:03:19.810Z,7.64
2018-04-27T02:05:12.742Z,7.75
2018-04-27T02:06:12.761Z,7.68
2018-04-27T02:08:05.716Z,7.80
2018-04-27T02:09:05.715Z,7.72
2018-04-27T02:10:58.657Z,7.69
2018-04-27T02:11:58.674Z,7.61
2018-04-27T02:13:51.624Z,7.53
2018-04-27T02:14:51.621Z,7.52
2018-04-27T02:16:44.561Z,7.46
2018-04-27T02:17:44.578Z,7.37
2018-04-27T02:19:37.532Z,7.39
2018-04-27T02:20:37.532Z,7.30
2018-04-27T02:22:30.498Z,7.31
2018-04-27T02:23:30.487Z,7.28
2018-04-27T02:25:23.421Z,7.35
2018-04-27T02:26:23.437Z,7.32
2018-04-27T02:28:16.393Z,7.32
2018-04-27T02:29:16.391Z,7.27
2018-04-27T02:31:09.331Z,7.32
2018-04-27T02:32:09.350Z,7.32
2018-04-27T02:34:02.300Z,7.28
2018-04-27T02:35:02.300Z,7.23
2018-04-27T02:36:55.236Z,7.24
2018-04-27T02:37:55.252Z,7.13
2018-04-27T02:39:48.214Z,7.16
2018-04-27T02:40:48.207Z,7.16
2018-04-27T02:42:41.169Z,7.06
2018-04-27T02:43:41.158Z,7.16
2018-04-27T02:45:34.115Z,7.09
2018-04-27T02:46:34.115Z,7.05
2018-04-27T02:48:27.069Z,7.13
2018-04-27T02:49:27.072Z,7.12
2018-04-27T02:51:20.006Z,7.15
2018-04-27T02:52:20.024Z,7.15
2018-04-27T02:54:12.981Z,7.21
2018-04-27T02:55:12.976Z,7.23
2018-04-27T02:57:05.912Z,7.25
2018-04-27T02:58:05.929Z,7.24
2018-04-27T02:59:58.882Z,7.12
2018-04-27T03:00:58.885Z,7.13
2018-04-27T03:02:51.820Z,7.16
2018-04-27T03:03:51.837Z,7.21
2018-04-27T03:05:44.791Z,7.13
2018-04-27T03:06:44.789Z,7.21
2018-04-27T03:08:37.747Z,7.16
2018-04-27T03:09:37.742Z,7.10
2018-04-27T03:11:30.682Z,7.13
2018-04-27T03:12:30.697Z,7.13
2018-04-27T03:14:23.651Z,7.03
2018-04-27T03:15:23.652Z,7.06
2018-04-27T03:17:16.593Z,6.94
2018-04-27T03:18:16.603Z,6.98
2018-04-27T03:20:09.562Z,6.94
2018-04-27T03:21:09.558Z,6.98
2018-04-27T03:23:02.495Z,7.03
2018-04-27T03:24:02.564Z,6.92
2018-04-27T03:25:55.467Z,6.92
2018-04-27T03:26:55.464Z,6.95
2018-04-27T03:28:48.422Z,7.07
2018-04-27T03:29:48.419Z,7.06
2018-04-27T03:31:41.358Z,7.05
2018-04-27T03:32:41.374Z,7.03
2018-04-27T03:34:34.332Z,7.10
2018-04-27T03:35:34.329Z,7.10
2018-04-27T03:37:27.265Z,7.10
2018-04-27T03:38:27.281Z,7.15
2018-04-27T03:40:20.238Z,7.17
2018-04-27T03:41:20.237Z,7.15
2018-04-27T03:43:13.171Z,7.24
2018-04-27T03:44:13.188Z,7.25
2018-04-27T03:46:06.663Z,7.31
2018-04-27T03:47:06.654Z,7.42
2018-04-27T03:48:59.611Z,7.35
2018-04-27T03:49:59.615Z,7.35
2018-04-27T03:51:52.560Z,7.39
2018-04-27T03:52:52.562Z,7.43
2018-04-27T03:54:46.030Z,7.46
2018-04-27T03:55:46.026Z,7.42
2018-04-27T03:57:46.441Z,7.43
2018-04-27T03:58:46.458Z,7.39
2018-04-27T04:00:39.411Z,7.43
2018-04-27T04:01:39.411Z,7.34
2018-04-27T04:03:32.369Z,7.46
2018-04-27T04:04:32.366Z,7.46
2018-04-27T04:06:25.814Z,7.58
2018-04-27T04:07:25.831Z,7.53
2018-04-27T04:09:18.784Z,7.63
2018-04-27T04:10:18.786Z,7.64
2018-04-27T04:12:11.721Z,7.63
2018-04-27T04:13:11.741Z,7.60
2018-04-27T04:15:04.694Z,7.55
2018-04-27T04:16:04.691Z,7.52
2018-04-27T04:17:57.626Z,7.49
2018-04-27T04:18:57.645Z,7.53
2018-04-27T04:20:50.603Z,7.58
2018-04-27T04:21:50.598Z,7.49
2018-04-27T04:23:43.556Z,7.46
2018-04-27T04:24:43.555Z,7.45
2018-04-27T04:26:36.487Z,7.48
2018-04-27T04:27:36.505Z,7.50
2018-04-27T04:29:29.463Z,7.40
2018-04-27T04:30:29.460Z,7.48
2018-04-27T04:32:22.414Z,7.48
2018-04-27T04:33:22.414Z,7.45
2018-04-27T04:35:15.368Z,7.45
2018-04-27T04:36:15.367Z,7.42
2018-04-27T04:38:08.305Z,7.35
2018-04-27T04:39:08.320Z,7.31
2018-04-27T04:41:01.280Z,7.43
2018-04-27T04:42:01.279Z,7.48
2018-04-27T04:43:54.231Z,7.53
2018-04-27T04:44:54.230Z,7.50
2018-04-27T04:46:47.166Z,7.50
2018-04-27T04:47:47.182Z,7.52
2018-04-27T04:49:40.141Z,7.63
2018-04-27T04:50:40.136Z,7.57
2018-04-27T04:52:33.166Z,7.58
2018-04-27T04:53:33.091Z,7.79
2018-04-27T04:55:26.048Z,7.64
2018-04-27T04:56:26.046Z,7.69
2018-04-27T04:58:18.984Z,7.71
2018-04-27T04:59:19.000Z,7.60
2018-04-27T05:01:11.956Z,7.60
2018-04-27T05:02:11.959Z,7.63
2018-04-27T05:04:04.911Z,7.53
2018-04-27T05:05:04.908Z,7.53
2018-04-27T05:06:58.355Z,7.60
2018-04-27T05:07:58.373Z,7.67
2018-04-27T05:09:51.333Z,7.68
2018-04-27T05:10:51.346Z,7.80
2018-04-27T05:12:44.266Z,7.87
2018-04-27T05:13:44.283Z,7.92
2018-04-27T05:15:37.235Z,7.98
2018-04-27T05:16:37.235Z,8.01
2018-04-27T05:18:30.174Z,8.02
2018-04-27T05:19:30.190Z,8.07
2018-04-27T05:21:23.108Z,8.20
2018-04-27T05:22:23.108Z,8.30
2018-04-27T05:24:16.584Z,8.50
2018-04-27T05:25:16.524Z,8.55
2018-04-27T05:27:09.422Z,8.68
2018-04-27T05:28:09.439Z,8.74
2018-04-27T05:30:02.363Z,8.84
2018-04-27T05:31:02.361Z,8.95
2018-04-27T05:32:55.263Z,8.99
2018-04-27T05:33:55.279Z,9.13
2018-04-27T05:35:48.198Z,9.17
2018-04-27T05:36:48.207Z,9.17
2018-04-27T05:38:41.105Z,9.35
2018-04-27T05:39:41.124Z,9.46
2018-04-27T05:41:34.044Z,9.38
2018-04-27T05:42:34.042Z,9.46
2018-04-27T05:44:27.457Z,9.29
2018-04-27T05:45:27.456Z,9.38
2018-04-27T05:47:20.360Z,9.56
2018-04-27T05:48:20.453Z,9.50
2018-04-27T05:50:13.293Z,9.35
2018-04-27T05:51:13.295Z,9.26
2018-04-27T05:53:06.198Z,9.24
2018-04-27T05:54:06.216Z,9.23
2018-04-27T05:55:59.140Z,9.33
2018-04-27T05:56:59.140Z,9.43
2018-04-27T05:58:52.049Z,9.42
2018-04-27T05:59:52.067Z,9.35
2018-04-27T06:01:44.984Z,9.24
2018-04-27T06:02:44.982Z,9.33
2018-04-27T06:04:37.937Z,9.64
2018-04-27T06:05:37.908Z,9.84
2018-04-27T06:07:30.810Z,10.51
2018-04-27T06:08:30.829Z,10.73
2018-04-27T06:10:23.754Z,11.40
2018-04-27T06:11:23.756Z,11.86
2018-04-27T06:13:16.662Z,12.23
2018-04-27T06:14:16.681Z,12.50
2018-04-27T06:16:10.159Z,12.90
2018-04-27T06:17:10.106Z,13.11
2018-04-27T06:19:03.014Z,13.46
2018-04-27T06:20:03.034Z,13.69
2018-04-27T06:21:55.965Z,14.04
2018-04-27T06:22:55.967Z,14.35
2018-04-27T06:24:48.907Z,14.94
2018-04-27T06:25:48.999Z,15.25
2018-04-27T06:27:41.823Z,15.59
2018-04-27T06:28:41.845Z,15.60
2018-04-27T06:30:34.776Z,15.74
2018-04-27T06:31:34.781Z,15.87
2018-04-27T06:33:27.696Z,16.21
2018-04-27T06:34:27.718Z,16.14
2018-04-27T06:36:21.146Z,16.20
2018-04-27T06:37:21.153Z,16.28
2018-04-27T06:39:14.069Z,16.46
2018-04-27T06:40:14.095Z,16.64
2018-04-27T06:42:07.036Z,16.96
2018-04-27T06:43:07.042Z,16.94
2018-04-27T06:44:59.993Z,17.08
2018-04-27T06:45:59.987Z,17.04
2018-04-27T06:47:52.908Z,16.96
2018-04-27T06:48:52.934Z,16.93
2018-04-27T06:50:45.879Z,16.73
2018-04-27T06:51:45.885Z,16.83
2018-04-27T06:53:38.802Z,16.68
2018-04-27T06:54:38.828Z,16.78
2018-04-27T06:56:31.765Z,17.03
2018-04-27T06:57:31.774Z,17.16
2018-04-27T06:59:24.762Z,17.43
2018-04-27T07:00:24.719Z,17.48
2018-04-27T07:02:17.667Z,17.58
2018-04-27T07:03:17.663Z,17.44
2018-04-27T07:05:10.643Z,17.38
2018-04-27T07:06:10.616Z,17.41
2018-04-27T07:08:03.537Z,17.33
2018-04-27T07:09:03.559Z,17.21
2018-04-27T07:10:56.504Z,17.08
2018-04-27T07:11:56.506Z,16.98
2018-04-27T07:13:49.423Z,16.85
2018-04-27T07:14:49.451Z,16.81
2018-04-27T07:16:42.382Z,16.82
2018-04-27T07:17:42.393Z,16.76
2018-04-27T07:19:35.304Z,16.78
2018-04-27T07:20:35.332Z,16.75
2018-04-27T07:22:28.264Z,16.60
2018-04-27T07:23:28.271Z,16.63
2018-04-27T07:25:21.201Z,16.56
2018-04-27T07:26:21.210Z,16.50
2018-04-27T07:28:14.148Z,16.60
2018-04-27T07:29:14.147Z,16.67
2018-04-27T07:31:07.079Z,16.42
2018-04-27T07:32:07.086Z,16.45
2018-04-27T07:33:59.999Z,16.42
2018-04-27T07:35:00.027Z,16.34
2018-04-27T07:36:52.955Z,16.34
2018-04-27T07:37:52.963Z,16.43
2018-04-27T07:39:45.969Z,16.50
2018-04-27T07:40:45.902Z,16.48
2018-04-27T07:42:39.326Z,16.35
2018-04-27T07:43:39.329Z,16.21
2018-04-27T07:45:32.261Z,16.02
2018-04-27T07:46:32.264Z,15.89
2018-04-27T07:48:26.691Z,15.86
2018-04-27T07:49:26.695Z,15.84
2018-04-27T07:51:19.630Z,15.87
2018-04-27T07:52:19.637Z,16.00
2018-04-27T07:54:13.040Z,15.84
2018-04-27T07:55:13.064Z,15.92
2018-04-27T07:57:06.501Z,16.00
2018-04-27T07:58:06.498Z,16.07
2018-04-27T07:59:59.416Z,16.12
2018-04-27T08:00:59.440Z,16.27
2018-04-27T08:02:52.862Z,16.53
2018-04-27T08:03:52.869Z,16.46
2018-04-27T08:05:45.820Z,16.33
2018-04-27T08:06:45.806Z,16.31
2018-04-27T08:08:38.719Z,16.34
2018-04-27T08:09:38.747Z,16.48
2018-04-27T08:11:31.676Z,16.46
2018-04-27T08:12:31.684Z,16.56
2018-04-27T08:14:26.088Z,16.67
2018-04-27T08:15:26.111Z,16.63
2018-04-27T08:17:19.045Z,16.67
2018-04-27T08:18:19.051Z,16.60
2018-04-27T08:20:11.965Z,16.63
2018-04-27T08:21:11.989Z,16.71
2018-04-27T08:23:04.930Z,16.63
2018-04-27T08:24:04.931Z,16.67
2018-04-27T08:25:57.874Z,16.63
2018-04-27T08:26:57.877Z,16.57
2018-04-27T08:28:50.791Z,16.60
2018-04-27T08:29:50.819Z,16.52
2018-04-27T08:31:43.752Z,16.76
2018-04-27T08:32:43.759Z,16.86
2018-04-27T08:34:36.667Z,16.83
2018-04-27T08:35:36.691Z,16.83
2018-04-27T08:37:29.622Z,16.79
2018-04-27T08:38:29.627Z,16.86
2018-04-27T08:40:22.543Z,16.96
2018-04-27T08:41:22.569Z,17.07
2018-04-27T08:43:15.500Z,17.26
2018-04-27T08:44:15.509Z,17.26
2018-04-27T08:46:08.940Z,17.43
2018-04-27T08:47:08.940Z,17.44
2018-04-27T08:49:01.855Z,17.68
2018-04-27T08:50:01.882Z,17.62
2018-04-27T08:51:54.818Z,17.75
2018-04-27T08:52:54.822Z,17.78
2018-04-27T08:54:47.737Z,17.75
2018-04-27T08:55:47.766Z,17.78
2018-04-27T08:57:40.696Z,17.77
2018-04-27T08:58:40.705Z,17.77
2018-04-27T09:00:33.679Z,17.89
2018-04-27T09:01:33.647Z,17.97
2018-04-27T09:03:26.590Z,17.99
2018-04-27T09:04:26.591Z,18.21
2018-04-27T09:06:19.628Z,18.36
2018-04-27T09:07:19.539Z,18.42
2018-04-27T09:09:12.457Z,18.35
2018-04-27T09:10:12.483Z,18.41
2018-04-27T09:12:05.912Z,18.47
2018-04-27T09:13:05.920Z,18.55
2018-04-27T09:14:58.838Z,18.66
2018-04-27T09:15:58.865Z,18.72
2018-04-27T09:17:51.799Z,18.80
2018-04-27T09:18:51.806Z,18.84
2018-04-27T09:20:44.725Z,18.94
2018-04-27T09:21:44.752Z,18.84
2018-04-27T09:23:38.183Z,18.91
2018-04-27T09:24:38.191Z,18.82
2018-04-27T09:26:31.650Z,18.88
2018-04-27T09:27:31.636Z,19.00
2018-04-27T09:29:24.555Z,18.99
2018-04-27T09:30:24.580Z,19.16
2018-04-27T09:32:17.589Z,19.25
2018-04-27T09:33:17.531Z,19.26
2018-04-27T09:35:10.940Z,19.29
2018-04-27T09:36:10.968Z,19.36
2018-04-27T09:38:03.912Z,19.29
2018-04-27T09:39:03.916Z,19.37
2018-04-27T09:40:56.908Z,19.28
2018-04-27T09:41:56.869Z,19.25
2018-04-27T09:43:49.807Z,19.22
2018-04-27T09:44:49.814Z,19.25
2018-04-27T09:46:42.760Z,19.32
2018-04-27T09:47:42.760Z,19.37
2018-04-27T09:49:35.699Z,19.44
2018-04-27T09:50:35.708Z,19.16
2018-04-27T09:52:28.643Z,19.18
2018-04-27T09:53:28.652Z,19.26
2018-04-27T09:55:21.576Z,19.32
2018-04-27T09:56:21.603Z,19.41
2018-04-27T09:58:14.557Z,19.44
2018-04-27T09:59:14.556Z,19.55
2018-04-27T10:01:08.979Z,19.59
2018-04-27T10:02:09.000Z,19.59
2018-04-27T10:04:02.436Z,19.23
2018-04-27T10:05:02.447Z,19.06
2018-04-27T10:06:55.378Z,18.80
2018-04-27T10:07:55.386Z,18.82
2018-04-27T10:09:48.305Z,18.88
2018-04-27T10:10:48.333Z,18.92
2018-04-27T10:12:41.273Z,19.21
2018-04-27T10:13:41.280Z,19.31
2018-04-27T10:15:34.202Z,19.47
2018-04-27T10:16:34.231Z,19.29
2018-04-27T10:18:27.171Z,19.23
2018-04-27T10:19:27.178Z,19.25
2018-04-27T10:21:20.106Z,19.28
2018-04-27T10:22:20.136Z,19.33
2018-04-27T10:24:13.080Z,19.48
2018-04-27T10:25:13.088Z,19.40
2018-04-27T10:27:06.523Z,19.56
2018-04-27T10:28:06.529Z,19.59
2018-04-27T10:29:59.450Z,19.92
2018-04-27T10:30:59.521Z,19.87
2018-04-27T10:32:52.416Z,19.88
2018-04-27T10:33:52.428Z,19.92
2018-04-27T10:35:45.345Z,19.84
2018-04-27T10:36:45.374Z,19.96
2018-04-27T10:38:38.311Z,20.17
2018-04-27T10:39:38.320Z,20.20
2018-04-27T10:41:31.248Z,20.16
2018-04-27T10:42:31.269Z,20.26
2018-04-27T10:44:24.215Z,20.05
2018-04-27T10:45:24.217Z,20.03
2018-04-27T10:47:17.180Z,19.92
2018-04-27T10:48:17.165Z,19.94
2018-04-27T10:50:10.156Z,19.92
2018-04-27T10:51:10.115Z,20.03
2018-04-27T10:53:03.054Z,20.13
2018-04-27T10:54:03.061Z,20.16
2018-04-27T10:55:55.987Z,20.31
2018-04-27T10:56:56.013Z,20.20
2018-04-27T10:58:48.955Z,20.28
2018-04-27T10:59:48.960Z,20.47
2018-04-27T11:01:41.885Z,20.50
2018-04-27T11:02:41.910Z,20.62
2018-04-27T11:04:34.858Z,20.70
2018-04-27T11:05:34.868Z,20.74
2018-04-27T11:07:27.796Z,20.76
2018-04-27T11:08:27.816Z,20.77
2018-04-27T11:10:20.763Z,20.92
2018-04-27T11:11:20.775Z,20.94
2018-04-27T11:13:13.714Z,20.87
2018-04-27T11:14:13.723Z,20.74
2018-04-27T11:16:06.653Z,20.48
2018-04-27T11:17:06.854Z,20.26
2018-04-27T11:18:59.628Z,20.13
2018-04-27T11:19:59.635Z,20.18
2018-04-27T11:21:52.562Z,20.11
2018-04-27T11:22:52.590Z,20.16
2018-04-27T11:24:45.529Z,19.95
2018-04-27T11:25:45.538Z,19.71
2018-04-27T11:27:39.454Z,19.54
2018-04-27T11:28:39.530Z,19.58
2018-04-27T11:30:32.428Z,19.76
2018-04-27T11:31:32.432Z,19.71
2018-04-27T11:33:25.370Z,19.69
2018-04-27T11:34:25.376Z,19.81
2018-04-27T11:36:18.305Z,19.95
2018-04-27T11:37:18.331Z,20.11
2018-04-27T11:39:11.273Z,20.26
2018-04-27T11:40:11.285Z,20.36
2018-04-27T11:42:04.302Z,20.50
2018-04-27T11:43:04.329Z,20.43
2018-04-27T11:44:57.375Z,20.23
2018-04-27T11:45:57.385Z,20.17
2018-04-27T11:47:50.492Z,20.32
2018-04-27T11:48:50.439Z,20.42
2018-04-27T11:50:43.899Z,20.29
2018-04-27T11:51:43.906Z,20.26
2018-04-27T11:53:36.954Z,19.88
2018-04-27T11:54:36.961Z,19.91
2018-04-27T11:56:29.990Z,19.48
2018-04-27T11:57:30.019Z,19.59
2018-04-27T11:59:23.066Z,19.73
2018-04-27T12:00:23.077Z,19.61
2018-04-27T12:02:16.101Z,19.55
2018-04-27T12:03:16.133Z,19.48
2018-04-27T12:05:09.180Z,19.43
2018-04-27T12:06:09.188Z,19.37
2018-04-27T12:08:02.115Z,19.18
2018-04-27T12:09:02.140Z,19.10
2018-04-27T12:10:55.087Z,19.23
2018-04-27T12:11:55.094Z,19.25
2018-04-27T12:13:48.143Z,19.50
2018-04-27T12:14:48.149Z,19.50
2018-04-27T12:16:41.179Z,19.56
2018-04-27T12:17:41.305Z,19.62
2018-04-27T12:19:34.663Z,19.78
2018-04-27T12:20:34.672Z,19.46
2018-04-27T12:22:27.598Z,19.47
2018-04-27T12:23:27.626Z,19.44
2018-04-27T12:25:20.671Z,19.55
2018-04-27T12:26:20.679Z,19.76
2018-04-27T12:28:13.615Z,19.68
2018-04-27T12:29:13.645Z,19.74
2018-04-27T12:31:06.747Z,19.86
2018-04-27T12:32:06.699Z,20.02
2018-04-27T12:34:00.150Z,20.05
2018-04-27T12:35:00.159Z,19.98
2018-04-27T12:36:53.083Z,19.59
2018-04-27T12:37:53.112Z,19.68
2018-04-27T12:39:46.059Z,19.71
2018-04-27T12:40:46.065Z,19.88
2018-04-27T12:42:38.991Z,20.10
2018-04-27T12:43:39.019Z,20.28
2018-04-27T12:45:31.964Z,20.41
2018-04-27T12:46:31.970Z,20.47
2018-04-27T12:48:24.900Z,20.36
2018-04-27T12:49:24.927Z,20.35
2018-04-27T12:51:17.919Z,20.42
2018-04-27T12:52:17.953Z,20.47
2018-04-27T12:54:10.827Z,20.29
2018-04-27T12:55:10.833Z,20.11
2018-04-27T12:57:03.759Z,20.16
2018-04-27T12:58:03.786Z,20.16
2018-04-27T12:59:56.732Z,20.28
2018-04-27T13:00:56.743Z,20.29
2018-04-27T13:02:49.772Z,20.14
2018-04-27T13:03:49.804Z,20.06
2018-04-27T13:05:42.737Z,20.08
2018-04-27T13:06:42.745Z,19.94
2018-04-27T13:08:36.191Z,20.03
2018-04-27T13:09:36.224Z,20.02
2018-04-27T13:11:29.166Z,19.87
2018-04-27T13:12:29.173Z,19.81
2018-04-27T13:14:22.222Z,19.56
2018-04-27T13:15:22.234Z,19.66
2018-04-27T13:17:15.670Z,19.87
2018-04-27T13:18:15.695Z,19.99
2018-04-27T13:20:08.634Z,20.18
2018-04-27T13:21:08.639Z,20.21
2018-04-27T13:23:01.575Z,20.14
2018-04-27T13:24:01.602Z,20.28
2018-04-27T13:25:56.085Z,20.26
2018-04-27T13:26:56.093Z,20.26
2018-04-27T13:28:49.546Z,20.24
2018-04-27T13:29:49.555Z,20.29
2018-04-27T13:31:42.508Z,20.18
2018-04-27T13:32:42.513Z,20.23
2018-04-27T13:34:38.536Z,20.50
2018-04-27T13:35:38.537Z,20.47
2018-04-27T13:37:31.984Z,20.18
2018-04-27T13:38:32.008Z,20.01
2018-04-27T13:40:25.460Z,19.65
2018-04-27T13:41:25.470Z,19.71
2018-04-27T13:43:19.930Z,19.88
2018-04-27T13:44:19.957Z,19.81
2018-04-27T13:46:12.902Z,19.98
2018-04-27T13:47:12.921Z,20.02
2018-04-27T13:49:05.857Z,19.99
2018-04-27T13:50:05.863Z,19.84
2018-04-27T13:51:58.867Z,19.92
2018-04-27T13:52:58.818Z,19.94
2018-04-27T13:54:51.767Z,20.13
2018-04-27T13:55:51.772Z,20.24
2018-04-27T13:57:45.216Z,20.47
2018-04-27T13:58:45.244Z,20.66
2018-04-27T14:00:38.289Z,20.73
2018-04-27T14:01:38.295Z,20.43
2018-04-27T14:03:31.223Z,20.28
2018-04-27T14:04:31.250Z,20.17
2018-04-27T14:06:24.297Z,20.18
2018-04-27T14:07:24.309Z,20.26
2018-04-27T14:09:18.790Z,20.13
2018-04-27T14:10:18.897Z,20.24
2018-04-27T14:12:11.825Z,20.23
2018-04-27T14:13:11.854Z,19.98
2018-04-27T14:15:04.800Z,19.96
2018-04-27T14:16:04.807Z,20.02
2018-04-27T14:17:57.735Z,20.29
2018-04-27T14:18:57.763Z,20.35
2018-04-27T14:20:50.812Z,20.41
2018-04-27T14:21:50.819Z,20.39
2018-04-27T14:23:44.253Z,20.59
2018-04-27T14:24:44.280Z,20.54
2018-04-27T14:26:37.332Z,20.61
2018-04-27T14:27:37.340Z,20.73
2018-04-27T14:29:30.284Z,21.01
2018-04-27T14:30:30.296Z,20.98
2018-04-27T14:32:23.321Z,20.85
2018-04-27T14:33:23.351Z,20.88
2018-04-27T14:35:16.394Z,20.70
2018-04-27T14:36:16.404Z,20.57
2018-04-27T14:38:09.435Z,20.58
2018-04-27T14:39:09.460Z,20.61
2018-04-27T14:41:02.513Z,20.52
2018-04-27T14:42:02.517Z,20.69
2018-04-27T14:43:55.545Z,20.33
2018-04-27T14:44:55.573Z,20.23
2018-04-27T14:46:48.521Z,20.29
2018-04-27T14:47:48.531Z,20.29
2018-04-27T14:49:41.583Z,20.41
2018-04-27T14:50:41.583Z,20.42
2018-04-27T14:52:34.586Z,20.39
2018-04-27T14:53:34.539Z,20.14
2018-04-27T14:55:27.587Z,20.47
2018-04-27T14:56:27.595Z,20.66
2018-04-27T14:58:20.522Z,20.73
2018-04-27T14:59:20.551Z,20.85
2018-04-27T15:01:13.595Z,20.91
2018-04-27T15:02:13.604Z,20.98
2018-04-27T15:04:06.534Z,21.25
2018-04-27T15:05:06.560Z,21.27
2018-04-27T15:06:59.603Z,21.19
2018-04-27T15:07:59.611Z,21.21
2018-04-27T15:09:53.074Z,20.77
2018-04-27T15:10:53.085Z,20.70
2018-04-27T15:12:46.111Z,20.67
2018-04-27T15:13:46.135Z,20.72
2018-04-27T15:15:39.085Z,20.89
2018-04-27T15:16:39.091Z,20.98
2018-04-27T15:18:32.127Z,20.94
2018-04-27T15:19:32.156Z,20.94
2018-04-27T15:21:25.193Z,20.88
2018-04-27T15:22:25.205Z,20.70
2018-04-27T15:24:18.229Z,20.52
2018-04-27T15:25:18.257Z,20.43
2018-04-27T15:27:11.202Z,20.51
2018-04-27T15:28:11.211Z,20.36
2018-04-27T15:30:04.156Z,20.52
2018-04-27T15:31:04.166Z,20.52
2018-04-27T15:32:57.094Z,20.28
2018-04-27T15:33:57.120Z,20.17
2018-04-27T15:35:50.590Z,20.17
2018-04-27T15:36:50.589Z,20.10
2018-04-27T15:38:43.614Z,20.11
2018-04-27T15:39:43.641Z,20.11
2018-04-27T15:41:36.591Z,20.26
2018-04-27T15:42:36.596Z,20.14
2018-04-27T15:44:29.522Z,19.94
2018-04-27T15:45:29.548Z,19.98
2018-04-27T15:47:22.496Z,19.88
2018-04-27T15:48:22.503Z,19.88
2018-04-27T15:50:15.449Z,19.98
2018-04-27T15:51:15.457Z,20.16
2018-04-27T15:53:08.384Z,20.16
2018-04-27T15:54:08.412Z,20.32
2018-04-27T15:56:01.376Z,20.39
2018-04-27T15:57:01.366Z,20.51
2018-04-27T15:58:54.846Z,20.42
2018-04-27T15:59:54.832Z,20.52
2018-04-27T16:01:47.779Z,20.57
2018-04-27T16:02:47.785Z,20.59
2018-04-27T16:04:41.225Z,20.59
2018-04-27T16:05:41.330Z,20.62
2018-04-27T16:07:34.195Z,20.64
2018-04-27T16:08:34.202Z,20.55
2018-04-27T16:10:27.176Z,20.35
2018-04-27T16:11:27.234Z,20.29
2018-04-27T16:13:20.188Z,20.13
2018-04-27T16:14:20.214Z,19.98
2018-04-27T16:16:13.159Z,19.84
2018-04-27T16:17:13.167Z,19.62
2018-04-27T16:19:06.197Z,19.61
2018-04-27T16:20:06.223Z,19.65
2018-04-27T16:21:59.170Z,19.73
2018-04-27T16:22:59.179Z,19.71
2018-04-27T16:24:52.100Z,19.66
2018-04-27T16:25:52.128Z,19.71
2018-04-27T16:27:45.077Z,19.95
2018-04-27T16:28:45.090Z,19.99
2018-04-27T16:30:38.034Z,20.02
2018-04-27T16:31:38.035Z,20.08
2018-04-27T16:33:31.476Z,20.16
2018-04-27T16:34:31.504Z,20.23
2018-04-27T16:36:24.451Z,20.35
2018-04-27T16:37:24.459Z,20.39
2018-04-27T16:39:17.385Z,20.42
2018-04-27T16:40:17.408Z,20.39
2018-04-27T16:42:10.354Z,20.50
2018-04-27T16:43:10.365Z,20.42
2018-04-27T16:45:03.294Z,20.47
2018-04-27T16:46:03.320Z,20.41
2018-04-27T16:47:56.264Z,20.51
2018-04-27T16:48:56.273Z,20.51
2018-04-27T16:50:49.729Z,20.50
2018-04-27T16:51:49.739Z,20.55
2018-04-27T16:53:42.667Z,20.47
2018-04-27T16:54:42.699Z,20.52
2018-04-27T16:56:35.638Z,20.55
2018-04-27T16:57:35.649Z,20.62
2018-04-27T16:59:28.573Z,20.70
2018-04-27T17:00:28.598Z,20.73
2018-04-27T17:02:21.537Z,20.73
2018-04-27T17:03:21.544Z,20.69
2018-04-27T17:05:14.481Z,20.57
2018-04-27T17:06:14.508Z,20.55
2018-04-27T17:08:07.557Z,20.43
2018-04-27T17:09:07.566Z,20.42
2018-04-27T17:11:01.043Z,20.39
2018-04-27T17:12:01.032Z,20.33
2018-04-27T17:13:53.955Z,20.38
2018-04-27T17:14:53.983Z,20.31
2018-04-27T17:16:46.933Z,20.06
2018-04-27T17:17:46.941Z,19.91
2018-04-27T17:19:41.351Z,19.62
2018-04-27T17:20:41.373Z,19.58
2018-04-27T17:22:34.405Z,19.55
2018-04-27T17:23:34.383Z,19.48
2018-04-27T17:25:27.310Z,19.47
2018-04-27T17:26:27.348Z,19.41
2018-04-27T17:28:20.282Z,19.50
2018-04-27T17:29:20.287Z,19.48
2018-04-27T17:31:13.239Z,19.47
2018-04-27T17:32:13.246Z,19.51
2018-04-27T17:34:06.681Z,19.51
2018-04-27T17:35:06.723Z,19.44
2018-04-27T17:36:59.678Z,19.48
2018-04-27T17:37:59.659Z,19.41
2018-04-27T17:39:52.606Z,19.39
2018-04-27T17:40:52.613Z,19.41
2018-04-27T17:42:45.561Z,19.29
2018-04-27T17:43:45.569Z,19.46
2018-04-27T17:45:38.563Z,19.31
2018-04-27T17:46:38.521Z,19.33
2018-04-27T17:48:31.470Z,19.33
2018-04-27T17:49:31.475Z,19.31
2018-04-27T17:51:24.446Z,19.31
2018-04-27T17:52:24.431Z,19.22
2018-04-27T17:54:17.358Z,19.21
2018-04-27T17:55:17.383Z,19.18
2018-04-27T17:57:10.328Z,19.19
2018-04-27T17:58:10.335Z,19.10
2018-04-27T18:00:03.250Z,19.08
2018-04-27T18:01:03.278Z,19.00
2018-04-27T18:02:56.701Z,18.99
2018-04-27T18:03:56.708Z,18.99
2018-04-27T18:05:49.625Z,18.81
2018-04-27T18:06:49.651Z,18.75
2018-04-27T18:08:42.579Z,18.67
2018-04-27T18:09:42.582Z,18.63
2018-04-27T18:11:35.595Z,18.72
2018-04-27T18:12:35.526Z,18.72
2018-04-27T18:14:28.466Z,18.78
2018-04-27T18:15:28.464Z,18.65
2018-04-27T18:17:21.391Z,18.67
2018-04-27T18:18:21.404Z,18.63
2018-04-27T18:20:14.316Z,18.55
2018-04-27T18:21:14.339Z,18.62
2018-04-27T18:23:07.325Z,18.44
2018-04-27T18:24:07.332Z,18.23
2018-04-27T18:26:00.259Z,18.17
2018-04-27T18:27:00.284Z,18.08
2018-04-27T18:28:53.231Z,17.99
2018-04-27T18:29:53.242Z,17.93
2018-04-27T18:31:46.203Z,17.92
2018-04-27T18:32:46.255Z,17.86
2018-04-27T18:34:39.119Z,17.72
2018-04-27T18:35:39.219Z,17.71
2018-04-27T18:37:32.194Z,17.62
2018-04-27T18:38:32.201Z,17.46
2018-04-27T18:40:25.135Z,17.44
2018-04-27T18:41:25.159Z,17.44
2018-04-27T18:43:19.642Z,17.37
2018-04-27T18:44:19.648Z,17.30
2018-04-27T18:46:12.573Z,17.14